Rattan, OK (74562)

1:05 PM CDT on July 28, 2014 (GMT -0500)
Stamper Municipal (KHHW) Elev 571 ft | 34.03 °N, 95.54 °W | Change Station

Current weather conditions updated 10 minutes ago

Clear
Clear
89 °F
Feels Like 91 °F
N
7
Wind Variable Wind from NE

Today is forecast to be Cooler than yesterday.

Today
High -- | Low -- °F
--% Chance of Precip.
Yesterday
High -- | Low -- °F
Precip. -- in
6:29 AM 8:25 PM
Waxing Crescent, 3% visible
Pressure 30.15 in
Visibility 10.0 miles
Clouds Clear
Heat Index 91 °F
Dew Point 65 °F
Humidity 44%
Rainfall 0.00 in
Snow Depth Not available.
UV 12 out of 12
Pollen 5.30 out of 12
Air Quality Not available.
Flu Activity Not available.
METAR KHHW 281755Z AUTO 04006KT 10SM CLR 32/18 A3015 RMK AO2 T03170182 10318 20261

More Conditions Fewer Conditions

Pressure 30.15 in
Visibility 10.0 miles
Clouds Clear
Heat Index 91 °F
Dew Point 65 °F
Humidity 44%
Rainfall 0.00 in
Snow Depth Not available.
UV 12 out of 12
Pollen 5.30 out of 12
Air Quality Not available.
Flu Activity Not available.
METAR KHHW 281755Z AUTO 04006KT 10SM CLR 32/18 A3015 RMK AO2 T03170182 10318 20261

More Conditions Fewer Conditions

10-Day Weather Forecast

Almanac

Astronomy

Jul. 28, 2014 Rise Set
Actual Time 6:29 AM CDT 8:25 PM CDT
Civil Twilight 6:01 AM CDT 8:53 PM CDT
Nautical Twilight 5:27 AM CDT 9:27 PM CDT
Astronomical Twilight 4:51 AM CDT 10:02 PM CDT
Moon 8:04 AM CDT 9:15 PM CDT
Length of Visible Light 14h 52m
Length of Day
13h 56m
Tomorrow will be 1m 31s shorter.
Waxing Crescent, 3% of the Moon is Illuminated
Today
Waxing Crescent
Aug 3
First Quarter
Aug 10
Full
Aug 17
Last Quarter
Aug 25
New

Today's Extremes

State Highs State Lows

Community

WunderPhotos

Upload Photos

1,738,429 photos uploaded!

WunderBlogs® & News

Nearby

Snow Depth

Station Depth Elevation
No new snow has been reported.

Earthquake Activity

City Distance Mag. Time & Date
No recent earthquake activity has been reported nearby.
Minimum magnitude displayed is 2.5.

Coastal Water Temperatures

Place Temperature
No Stations Reporting

Nearby Weather Stations

There are no personal weather stations in this area.